sensor_id;sensor_type;location;lat;lon;timestamp;P1;durP1;ratioP1;P2;durP2;ratioP2
6475;SDS011;3271;51.910;5.840;2023-12-29T00:01:48;5.00;;;2.15;;
6475;SDS011;3271;51.910;5.840;2023-12-29T00:04:14;9.05;;;1.90;;
6475;SDS011;3271;51.910;5.840;2023-12-29T00:06:40;4.80;;;1.63;;
6475;SDS011;3271;51.910;5.840;2023-12-29T00:09:06;6.88;;;2.17;;
6475;SDS011;3271;51.910;5.840;2023-12-29T00:11:32;6.65;;;2.08;;
6475;SDS011;3271;51.910;5.840;2023-12-29T00:13:59;6.15;;;1.88;;
6475;SDS011;3271;51.910;5.840;2023-12-29T00:16:27;7.68;;;1.98;;
6475;SDS011;3271;51.910;5.840;2023-12-29T00:18:53;5.07;;;2.53;;
6475;SDS011;3271;51.910;5.840;2023-12-29T00:21:19;5.13;;;2.40;;
6475;SDS011;3271;51.910;5.840;2023-12-29T00:23:45;5.03;;;1.83;;
6475;SDS011;3271;51.910;5.840;2023-12-29T00:26:11;3.70;;;1.80;;
6475;SDS011;3271;51.910;5.840;2023-12-29T00:28:36;4.32;;;1.85;;
6475;SDS011;3271;51.910;5.840;2023-12-29T00:31:05;4.88;;;1.65;;
6475;SDS011;3271;51.910;5.840;2023-12-29T00:33:31;4.40;;;1.85;;
6475;SDS011;3271;51.910;5.840;2023-12-29T00:35:57;5.35;;;1.70;;
6475;SDS011;3271;51.910;5.840;2023-12-29T00:38:25;4.78;;;1.60;;
6475;SDS011;3271;51.910;5.840;2023-12-29T00:40:52;5.40;;;2.15;;
6475;SDS011;3271;51.910;5.840;2023-12-29T00:43:18;8.15;;;2.40;;
6475;SDS011;3271;51.910;5.840;2023-12-29T00:45:44;9.20;;;2.78;;
6475;SDS011;3271;51.910;5.840;2023-12-29T00:48:10;5.65;;;2.15;;
6475;SDS011;3271;51.910;5.840;2023-12-29T00:50:36;5.20;;;2.25;;
6475;SDS011;3271;51.910;5.840;2023-12-29T00:53:02;8.68;;;2.45;;
6475;SDS011;3271;51.910;5.840;2023-12-29T00:55:28;6.32;;;2.20;;
6475;SDS011;3271;51.910;5.840;2023-12-29T00:57:53;5.72;;;2.00;;
6475;SDS011;3271;51.910;5.840;2023-12-29T01:00:20;7.20;;;2.10;;
6475;SDS011;3271;51.910;5.840;2023-12-29T01:02:46;8.05;;;3.55;;
6475;SDS011;3271;51.910;5.840;2023-12-29T01:05:17;5.82;;;2.58;;
6475;SDS011;3271;51.910;5.840;2023-12-29T01:07:43;3.55;;;1.98;;
6475;SDS011;3271;51.910;5.840;2023-12-29T01:10:09;6.75;;;2.30;;
6475;SDS011;3271;51.910;5.840;2023-12-29T01:12:35;4.45;;;2.05;;
6475;SDS011;3271;51.910;5.840;2023-12-29T01:15:01;7.05;;;2.38;;
6475;SDS011;3271;51.910;5.840;2023-12-29T01:17:27;4.13;;;1.73;;
6475;SDS011;3271;51.910;5.840;2023-12-29T01:19:53;6.53;;;2.03;;
6475;SDS011;3271;51.910;5.840;2023-12-29T01:22:20;6.97;;;2.42;;
6475;SDS011;3271;51.910;5.840;2023-12-29T01:24:46;6.72;;;2.50;;
6475;SDS011;3271;51.910;5.840;2023-12-29T01:27:12;6.80;;;2.00;;
6475;SDS011;3271;51.910;5.840;2023-12-29T01:29:38;5.72;;;2.38;;
6475;SDS011;3271;51.910;5.840;2023-12-29T01:32:04;7.50;;;2.58;;
6475;SDS011;3271;51.910;5.840;2023-12-29T01:34:32;4.93;;;1.95;;
6475;SDS011;3271;51.910;5.840;2023-12-29T01:37:02;5.32;;;2.00;;
6475;SDS011;3271;51.910;5.840;2023-12-29T01:39:29;7.07;;;2.00;;
6475;SDS011;3271;51.910;5.840;2023-12-29T01:41:55;4.75;;;1.55;;
6475;SDS011;3271;51.910;5.840;2023-12-29T01:44:21;5.15;;;1.95;;
6475;SDS011;3271;51.910;5.840;2023-12-29T01:46:51;4.97;;;1.63;;
6475;SDS011;3271;51.910;5.840;2023-12-29T01:49:19;6.30;;;2.20;;
6475;SDS011;3271;51.910;5.840;2023-12-29T01:51:48;3.92;;;2.15;;
6475;SDS011;3271;51.910;5.840;2023-12-29T01:54:14;4.85;;;2.00;;
6475;SDS011;3271;51.910;5.840;2023-12-29T01:56:40;7.00;;;3.20;;
6475;SDS011;3271;51.910;5.840;2023-12-29T01:59:07;5.57;;;1.88;;
6475;SDS011;3271;51.910;5.840;2023-12-29T02:01:33;6.50;;;2.25;;
6475;SDS011;3271;51.910;5.840;2023-12-29T02:03:59;5.03;;;1.80;;
6475;SDS011;3271;51.910;5.840;2023-12-29T02:06:25;5.93;;;2.78;;
6475;SDS011;3271;51.910;5.840;2023-12-29T02:08:52;5.43;;;2.00;;
6475;SDS011;3271;51.910;5.840;2023-12-29T02:11:18;6.93;;;1.98;;
6475;SDS011;3271;51.910;5.840;2023-12-29T02:13:44;5.72;;;2.22;;
6475;SDS011;3271;51.910;5.840;2023-12-29T02:16:22;4.22;;;1.90;;
6475;SDS011;3271;51.910;5.840;2023-12-29T02:18:53;3.13;;;1.80;;
6475;SDS011;3271;51.910;5.840;2023-12-29T02:21:26;3.72;;;1.60;;
6475;SDS011;3271;51.910;5.840;2023-12-29T02:23:52;3.90;;;1.40;;
6475;SDS011;3271;51.910;5.840;2023-12-29T02:26:19;7.75;;;2.35;;
6475;SDS011;3271;51.910;5.840;2023-12-29T02:28:48;4.53;;;2.13;;
6475;SDS011;3271;51.910;5.840;2023-12-29T02:31:17;4.10;;;2.00;;
6475;SDS011;3271;51.910;5.840;2023-12-29T02:33:43;2.28;;;1.70;;
6475;SDS011;3271;51.910;5.840;2023-12-29T02:36:11;3.80;;;2.17;;
6475;SDS011;3271;51.910;5.840;2023-12-29T02:38:38;5.68;;;2.03;;
6475;SDS011;3271;51.910;5.840;2023-12-29T02:41:04;7.03;;;2.30;;
6475;SDS011;3271;51.910;5.840;2023-12-29T02:43:33;5.32;;;2.45;;
6475;SDS011;3271;51.910;5.840;2023-12-29T02:45:59;4.60;;;1.98;;
6475;SDS011;3271;51.910;5.840;2023-12-29T02:48:25;3.85;;;1.73;;
6475;SDS011;3271;51.910;5.840;2023-12-29T02:50:51;3.95;;;1.70;;
6475;SDS011;3271;51.910;5.840;2023-12-29T02:53:17;6.13;;;1.67;;
6475;SDS011;3271;51.910;5.840;2023-12-29T02:55:43;6.68;;;2.78;;
6475;SDS011;3271;51.910;5.840;2023-12-29T02:58:09;5.82;;;2.78;;
6475;SDS011;3271;51.910;5.840;2023-12-29T03:00:35;9.38;;;2.15;;
6475;SDS011;3271;51.910;5.840;2023-12-29T03:03:01;5.50;;;1.70;;
6475;SDS011;3271;51.910;5.840;2023-12-29T03:05:27;7.47;;;1.90;;
6475;SDS011;3271;51.910;5.840;2023-12-29T03:07:52;8.38;;;2.35;;
6475;SDS011;3271;51.910;5.840;2023-12-29T03:10:18;8.60;;;2.67;;
6475;SDS011;3271;51.910;5.840;2023-12-29T03:12:44;4.32;;;1.92;;
6475;SDS011;3271;51.910;5.840;2023-12-29T03:15:10;5.35;;;2.17;;
6475;SDS011;3271;51.910;5.840;2023-12-29T03:17:36;6.55;;;2.25;;
6475;SDS011;3271;51.910;5.840;2023-12-29T03:20:02;9.15;;;2.30;;
6475;SDS011;3271;51.910;5.840;2023-12-29T03:22:30;6.78;;;1.90;;
6475;SDS011;3271;51.910;5.840;2023-12-29T03:24:56;5.78;;;2.00;;
6475;SDS011;3271;51.910;5.840;2023-12-29T03:27:22;7.53;;;1.73;;
6475;SDS011;3271;51.910;5.840;2023-12-29T03:29:48;8.00;;;2.65;;
6475;SDS011;3271;51.910;5.840;2023-12-29T03:32:13;6.78;;;2.20;;
6475;SDS011;3271;51.910;5.840;2023-12-29T03:34:40;5.88;;;2.45;;
6475;SDS011;3271;51.910;5.840;2023-12-29T03:37:06;6.55;;;2.40;;
6475;SDS011;3271;51.910;5.840;2023-12-29T03:39:32;6.22;;;2.25;;
6475;SDS011;3271;51.910;5.840;2023-12-29T03:42:00;6.63;;;2.30;;
6475;SDS011;3271;51.910;5.840;2023-12-29T03:44:26;7.28;;;2.30;;
6475;SDS011;3271;51.910;5.840;2023-12-29T03:46:52;7.93;;;2.75;;
6475;SDS011;3271;51.910;5.840;2023-12-29T03:49:18;10.55;;;2.05;;
6475;SDS011;3271;51.910;5.840;2023-12-29T03:51:44;5.13;;;1.92;;
6475;SDS011;3271;51.910;5.840;2023-12-29T03:54:11;7.45;;;2.50;;
6475;SDS011;3271;51.910;5.840;2023-12-29T03:56:37;6.03;;;2.45;;
6475;SDS011;3271;51.910;5.840;2023-12-29T03:59:03;5.70;;;2.60;;
6475;SDS011;3271;51.910;5.840;2023-12-29T04:01:29;10.32;;;2.20;;
6475;SDS011;3271;51.910;5.840;2023-12-29T04:03:55;8.43;;;2.58;;
6475;SDS011;3271;51.910;5.840;2023-12-29T04:06:21;6.55;;;2.17;;
6475;SDS011;3271;51.910;5.840;2023-12-29T04:08:46;5.43;;;2.17;;
6475;SDS011;3271;51.910;5.840;2023-12-29T04:11:12;8.65;;;3.25;;
6475;SDS011;3271;51.910;5.840;2023-12-29T04:13:38;5.72;;;2.13;;
6475;SDS011;3271;51.910;5.840;2023-12-29T04:16:04;8.48;;;2.33;;
6475;SDS011;3271;51.910;5.840;2023-12-29T04:18:30;8.55;;;2.22;;
6475;SDS011;3271;51.910;5.840;2023-12-29T04:20:56;8.50;;;2.55;;
6475;SDS011;3271;51.910;5.840;2023-12-29T04:23:22;8.13;;;2.70;;
6475;SDS011;3271;51.910;5.840;2023-12-29T04:25:48;7.03;;;2.53;;
6475;SDS011;3271;51.910;5.840;2023-12-29T04:28:14;8.93;;;2.10;;
6475;SDS011;3271;51.910;5.840;2023-12-29T04:30:40;6.40;;;1.90;;
6475;SDS011;3271;51.910;5.840;2023-12-29T04:33:06;6.70;;;2.30;;
6475;SDS011;3271;51.910;5.840;2023-12-29T04:35:32;4.38;;;2.08;;
6475;SDS011;3271;51.910;5.840;2023-12-29T04:37:58;5.88;;;2.63;;
6475;SDS011;3271;51.910;5.840;2023-12-29T04:40:24;8.98;;;2.35;;
6475;SDS011;3271;51.910;5.840;2023-12-29T04:42:50;7.55;;;2.60;;
6475;SDS011;3271;51.910;5.840;2023-12-29T04:45:16;7.07;;;2.35;;
6475;SDS011;3271;51.910;5.840;2023-12-29T04:47:42;7.22;;;2.83;;
6475;SDS011;3271;51.910;5.840;2023-12-29T04:50:08;9.15;;;2.60;;
6475;SDS011;3271;51.910;5.840;2023-12-29T04:52:34;8.80;;;2.55;;
6475;SDS011;3271;51.910;5.840;2023-12-29T04:55:00;13.02;;;3.53;;
6475;SDS011;3271;51.910;5.840;2023-12-29T04:57:26;8.02;;;2.92;;
6475;SDS011;3271;51.910;5.840;2023-12-29T04:59:52;6.47;;;2.63;;
6475;SDS011;3271;51.910;5.840;2023-12-29T05:02:17;12.20;;;3.60;;
6475;SDS011;3271;51.910;5.840;2023-12-29T05:04:44;9.85;;;2.75;;
6475;SDS011;3271;51.910;5.840;2023-12-29T05:07:11;12.27;;;3.05;;
6475;SDS011;3271;51.910;5.840;2023-12-29T05:09:37;7.78;;;3.05;;
6475;SDS011;3271;51.910;5.840;2023-12-29T05:12:03;10.85;;;3.42;;
6475;SDS011;3271;51.910;5.840;2023-12-29T05:14:29;8.05;;;3.15;;
6475;SDS011;3271;51.910;5.840;2023-12-29T05:16:55;8.13;;;2.38;;
6475;SDS011;3271;51.910;5.840;2023-12-29T05:19:21;13.65;;;2.42;;
6475;SDS011;3271;51.910;5.840;2023-12-29T05:21:47;6.18;;;2.38;;
6475;SDS011;3271;51.910;5.840;2023-12-29T05:24:16;9.43;;;3.67;;
6475;SDS011;3271;51.910;5.840;2023-12-29T05:26:42;10.32;;;2.67;;
6475;SDS011;3271;51.910;5.840;2023-12-29T05:29:08;8.40;;;2.55;;
6475;SDS011;3271;51.910;5.840;2023-12-29T05:31:34;7.05;;;2.33;;
6475;SDS011;3271;51.910;5.840;2023-12-29T05:33:59;7.60;;;2.22;;
6475;SDS011;3271;51.910;5.840;2023-12-29T05:36:25;6.63;;;3.05;;
6475;SDS011;3271;51.910;5.840;2023-12-29T05:38:51;11.60;;;2.83;;
6475;SDS011;3271;51.910;5.840;2023-12-29T05:41:18;9.50;;;3.50;;
6475;SDS011;3271;51.910;5.840;2023-12-29T05:43:44;6.55;;;2.50;;
6475;SDS011;3271;51.910;5.840;2023-12-29T05:46:11;6.47;;;2.47;;
6475;SDS011;3271;51.910;5.840;2023-12-29T05:48:37;8.27;;;3.15;;
6475;SDS011;3271;51.910;5.840;2023-12-29T05:51:09;9.18;;;2.40;;
6475;SDS011;3271;51.910;5.840;2023-12-29T05:53:36;10.25;;;2.63;;
6475;SDS011;3271;51.910;5.840;2023-12-29T05:56:02;6.82;;;2.45;;
6475;SDS011;3271;51.910;5.840;2023-12-29T05:58:28;7.80;;;2.63;;
6475;SDS011;3271;51.910;5.840;2023-12-29T06:00:54;11.52;;;2.85;;
6475;SDS011;3271;51.910;5.840;2023-12-29T06:03:21;7.63;;;3.00;;
6475;SDS011;3271;51.910;5.840;2023-12-29T06:05:47;9.15;;;2.55;;
6475;SDS011;3271;51.910;5.840;2023-12-29T06:08:13;9.13;;;2.88;;
6475;SDS011;3271;51.910;5.840;2023-12-29T06:10:40;8.00;;;2.08;;
6475;SDS011;3271;51.910;5.840;2023-12-29T06:13:06;3.85;;;2.08;;
6475;SDS011;3271;51.910;5.840;2023-12-29T06:15:32;7.72;;;2.17;;
6475;SDS011;3271;51.910;5.840;2023-12-29T06:17:58;6.72;;;2.70;;
6475;SDS011;3271;51.910;5.840;2023-12-29T06:20:24;11.30;;;3.45;;
6475;SDS011;3271;51.910;5.840;2023-12-29T06:22:50;10.73;;;2.75;;
6475;SDS011;3271;51.910;5.840;2023-12-29T06:25:16;8.50;;;2.30;;
6475;SDS011;3271;51.910;5.840;2023-12-29T06:27:42;7.05;;;2.95;;
6475;SDS011;3271;51.910;5.840;2023-12-29T06:30:08;8.05;;;3.15;;
6475;SDS011;3271;51.910;5.840;2023-12-29T06:32:38;8.57;;;2.10;;
6475;SDS011;3271;51.910;5.840;2023-12-29T06:35:05;6.90;;;2.38;;
6475;SDS011;3271;51.910;5.840;2023-12-29T06:37:31;8.35;;;2.15;;
6475;SDS011;3271;51.910;5.840;2023-12-29T06:39:58;7.88;;;2.45;;
6475;SDS011;3271;51.910;5.840;2023-12-29T06:42:24;9.02;;;2.15;;
6475;SDS011;3271;51.910;5.840;2023-12-29T06:44:50;8.95;;;2.58;;
6475;SDS011;3271;51.910;5.840;2023-12-29T06:47:16;10.32;;;4.15;;
6475;SDS011;3271;51.910;5.840;2023-12-29T06:49:42;8.27;;;2.15;;
6475;SDS011;3271;51.910;5.840;2023-12-29T06:52:08;4.93;;;2.00;;
6475;SDS011;3271;51.910;5.840;2023-12-29T06:54:34;4.95;;;2.08;;
6475;SDS011;3271;51.910;5.840;2023-12-29T06:57:00;6.97;;;2.20;;
6475;SDS011;3271;51.910;5.840;2023-12-29T06:59:26;6.90;;;2.00;;
6475;SDS011;3271;51.910;5.840;2023-12-29T07:01:52;5.40;;;2.28;;
6475;SDS011;3271;51.910;5.840;2023-12-29T07:04:18;7.43;;;1.98;;
6475;SDS011;3271;51.910;5.840;2023-12-29T07:06:44;4.32;;;1.83;;
6475;SDS011;3271;51.910;5.840;2023-12-29T07:09:10;6.65;;;2.10;;
6475;SDS011;3271;51.910;5.840;2023-12-29T07:11:36;5.70;;;2.20;;
6475;SDS011;3271;51.910;5.840;2023-12-29T07:14:02;5.63;;;1.92;;
6475;SDS011;3271;51.910;5.840;2023-12-29T07:16:28;4.25;;;1.88;;
6475;SDS011;3271;51.910;5.840;2023-12-29T07:18:54;4.35;;;1.65;;
6475;SDS011;3271;51.910;5.840;2023-12-29T07:21:20;6.80;;;2.05;;
6475;SDS011;3271;51.910;5.840;2023-12-29T07:23:46;4.38;;;1.90;;
6475;SDS011;3271;51.910;5.840;2023-12-29T07:26:12;4.82;;;1.95;;
6475;SDS011;3271;51.910;5.840;2023-12-29T07:28:38;4.97;;;1.90;;
6475;SDS011;3271;51.910;5.840;2023-12-29T07:31:04;7.07;;;2.20;;
6475;SDS011;3271;51.910;5.840;2023-12-29T07:33:30;6.50;;;2.38;;
6475;SDS011;3271;51.910;5.840;2023-12-29T07:35:56;7.57;;;2.42;;
6475;SDS011;3271;51.910;5.840;2023-12-29T07:38:24;6.35;;;2.38;;
6475;SDS011;3271;51.910;5.840;2023-12-29T07:40:50;5.60;;;2.00;;
6475;SDS011;3271;51.910;5.840;2023-12-29T07:43:16;5.90;;;2.10;;
6475;SDS011;3271;51.910;5.840;2023-12-29T07:45:42;5.35;;;1.85;;
6475;SDS011;3271;51.910;5.840;2023-12-29T07:48:10;5.05;;;1.60;;
6475;SDS011;3271;51.910;5.840;2023-12-29T07:50:36;3.03;;;1.70;;
6475;SDS011;3271;51.910;5.840;2023-12-29T07:53:02;5.10;;;2.15;;
6475;SDS011;3271;51.910;5.840;2023-12-29T07:55:29;6.82;;;1.80;;
6475;SDS011;3271;51.910;5.840;2023-12-29T07:57:55;4.72;;;1.80;;
6475;SDS011;3271;51.910;5.840;2023-12-29T08:00:21;5.82;;;1.90;;
6475;SDS011;3271;51.910;5.840;2023-12-29T08:02:48;4.97;;;1.95;;
6475;SDS011;3271;51.910;5.840;2023-12-29T08:05:14;5.55;;;1.90;;
6475;SDS011;3271;51.910;5.840;2023-12-29T08:07:41;4.00;;;1.60;;
6475;SDS011;3271;51.910;5.840;2023-12-29T08:10:08;4.53;;;1.60;;
6475;SDS011;3271;51.910;5.840;2023-12-29T08:12:34;6.40;;;2.03;;
6475;SDS011;3271;51.910;5.840;2023-12-29T08:15:00;4.43;;;1.60;;
6475;SDS011;3271;51.910;5.840;2023-12-29T08:17:27;5.53;;;1.70;;
6475;SDS011;3271;51.910;5.840;2023-12-29T08:19:53;3.63;;;1.45;;
6475;SDS011;3271;51.910;5.840;2023-12-29T08:22:20;7.85;;;2.03;;
6475;SDS011;3271;51.910;5.840;2023-12-29T08:24:45;5.45;;;1.65;;
6475;SDS011;3271;51.910;5.840;2023-12-29T08:27:12;2.47;;;1.42;;
6475;SDS011;3271;51.910;5.840;2023-12-29T08:29:38;4.50;;;1.98;;
6475;SDS011;3271;51.910;5.840;2023-12-29T08:32:05;4.82;;;1.85;;
6475;SDS011;3271;51.910;5.840;2023-12-29T08:34:31;5.55;;;2.13;;
6475;SDS011;3271;51.910;5.840;2023-12-29T08:36:57;4.72;;;1.50;;
6475;SDS011;3271;51.910;5.840;2023-12-29T08:39:23;6.78;;;1.92;;
6475;SDS011;3271;51.910;5.840;2023-12-29T08:41:49;5.40;;;1.92;;
6475;SDS011;3271;51.910;5.840;2023-12-29T08:44:15;3.45;;;1.58;;
6475;SDS011;3271;51.910;5.840;2023-12-29T08:46:41;2.97;;;1.50;;
6475;SDS011;3271;51.910;5.840;2023-12-29T08:49:08;1.75;;;1.25;;
6475;SDS011;3271;51.910;5.840;2023-12-29T08:51:34;5.10;;;1.65;;
6475;SDS011;3271;51.910;5.840;2023-12-29T08:54:00;4.40;;;1.40;;
6475;SDS011;3271;51.910;5.840;2023-12-29T08:56:26;2.90;;;1.67;;
6475;SDS011;3271;51.910;5.840;2023-12-29T08:58:54;3.60;;;1.58;;
6475;SDS011;3271;51.910;5.840;2023-12-29T09:01:20;4.47;;;1.58;;
6475;SDS011;3271;51.910;5.840;2023-12-29T09:03:46;3.85;;;1.38;;
6475;SDS011;3271;51.910;5.840;2023-12-29T09:06:11;4.00;;;1.50;;
6475;SDS011;3271;51.910;5.840;2023-12-29T09:08:38;3.30;;;1.48;;
6475;SDS011;3271;51.910;5.840;2023-12-29T09:11:04;3.33;;;1.50;;
6475;SDS011;3271;51.910;5.840;2023-12-29T09:13:30;2.95;;;1.40;;
6475;SDS011;3271;51.910;5.840;2023-12-29T09:15:57;3.45;;;1.27;;
6475;SDS011;3271;51.910;5.840;2023-12-29T09:18:23;2.15;;;1.60;;
6475;SDS011;3271;51.910;5.840;2023-12-29T09:20:49;2.08;;;1.52;;
6475;SDS011;3271;51.910;5.840;2023-12-29T09:23:15;3.30;;;1.10;;
6475;SDS011;3271;51.910;5.840;2023-12-29T09:25:41;3.90;;;1.60;;
6475;SDS011;3271;51.910;5.840;2023-12-29T09:28:07;2.33;;;1.55;;
6475;SDS011;3271;51.910;5.840;2023-12-29T09:30:33;3.75;;;1.52;;
6475;SDS011;3271;51.910;5.840;2023-12-29T09:32:59;3.15;;;1.30;;
6475;SDS011;3271;51.910;5.840;2023-12-29T09:35:25;1.63;;;0.98;;
6475;SDS011;3271;51.910;5.840;2023-12-29T09:37:51;3.42;;;1.40;;
6475;SDS011;3271;51.910;5.840;2023-12-29T09:40:17;3.13;;;1.33;;
6475;SDS011;3271;51.910;5.840;2023-12-29T09:42:43;3.13;;;1.30;;
6475;SDS011;3271;51.910;5.840;2023-12-29T09:45:11;3.75;;;1.33;;
6475;SDS011;3271;51.910;5.840;2023-12-29T09:47:41;2.13;;;1.33;;
6475;SDS011;3271;51.910;5.840;2023-12-29T09:50:11;3.00;;;1.27;;
6475;SDS011;3271;51.910;5.840;2023-12-29T09:52:41;1.73;;;1.17;;
6475;SDS011;3271;51.910;5.840;2023-12-29T09:55:08;1.88;;;1.40;;
6475;SDS011;3271;51.910;5.840;2023-12-29T09:57:35;2.47;;;1.20;;
6475;SDS011;3271;51.910;5.840;2023-12-29T10:00:02;2.00;;;1.27;;
6475;SDS011;3271;51.910;5.840;2023-12-29T10:02:28;3.83;;;2.35;;
6475;SDS011;3271;51.910;5.840;2023-12-29T10:04:55;2.50;;;1.15;;
6475;SDS011;3271;51.910;5.840;2023-12-29T10:07:25;3.80;;;1.45;;
6475;SDS011;3271;51.910;5.840;2023-12-29T10:09:57;3.00;;;1.42;;
6475;SDS011;3271;51.910;5.840;2023-12-29T10:12:27;1.80;;;1.33;;
6475;SDS011;3271;51.910;5.840;2023-12-29T10:22:41;1.25;;;1.10;;
6475;SDS011;3271;51.910;5.840;2023-12-29T10:25:08;2.78;;;1.20;;
6475;SDS011;3271;51.910;5.840;2023-12-29T10:27:34;1.98;;;1.10;;
6475;SDS011;3271;51.910;5.840;2023-12-29T10:30:00;1.88;;;1.10;;
6475;SDS011;3271;51.910;5.840;2023-12-29T10:32:26;1.42;;;1.00;;
6475;SDS011;3271;51.910;5.840;2023-12-29T10:35:10;1.67;;;1.30;;
6475;SDS011;3271;51.910;5.840;2023-12-29T10:37:39;1.58;;;1.00;;
6475;SDS011;3271;51.910;5.840;2023-12-29T10:40:05;1.38;;;1.10;;
6475;SDS011;3271;51.910;5.840;2023-12-29T10:42:32;1.73;;;1.00;;
6475;SDS011;3271;51.910;5.840;2023-12-29T10:45:08;1.63;;;1.00;;
6475;SDS011;3271;51.910;5.840;2023-12-29T10:47:38;1.52;;;1.00;;
6475;SDS011;3271;51.910;5.840;2023-12-29T10:50:09;2.17;;;1.10;;
6475;SDS011;3271;51.910;5.840;2023-12-29T10:52:35;2.65;;;1.10;;
6475;SDS011;3271;51.910;5.840;2023-12-29T10:55:09;1.65;;;1.30;;
6475;SDS011;3271;51.910;5.840;2023-12-29T10:57:36;1.30;;;1.00;;
6475;SDS011;3271;51.910;5.840;2023-12-29T11:00:02;1.70;;;1.10;;
6475;SDS011;3271;51.910;5.840;2023-12-29T11:02:32;1.75;;;1.05;;
6475;SDS011;3271;51.910;5.840;2023-12-29T11:05:05;2.05;;;0.98;;
6475;SDS011;3271;51.910;5.840;2023-12-29T11:07:32;2.20;;;1.05;;
6475;SDS011;3271;51.910;5.840;2023-12-29T11:10:02;2.67;;;1.10;;
6475;SDS011;3271;51.910;5.840;2023-12-29T11:12:30;2.22;;;1.17;;
6475;SDS011;3271;51.910;5.840;2023-12-29T11:14:56;2.13;;;1.42;;
6475;SDS011;3271;51.910;5.840;2023-12-29T11:17:22;2.35;;;1.10;;
6475;SDS011;3271;51.910;5.840;2023-12-29T11:19:48;1.85;;;1.38;;
6475;SDS011;3271;51.910;5.840;2023-12-29T11:22:16;2.75;;;1.27;;
6475;SDS011;3271;51.910;5.840;2023-12-29T11:24:45;2.33;;;1.38;;
6475;SDS011;3271;51.910;5.840;2023-12-29T11:27:11;1.35;;;1.20;;
6475;SDS011;3271;51.910;5.840;2023-12-29T11:29:38;3.97;;;1.90;;
6475;SDS011;3271;51.910;5.840;2023-12-29T11:32:06;2.17;;;1.40;;
6475;SDS011;3271;51.910;5.840;2023-12-29T11:34:35;3.38;;;1.50;;
6475;SDS011;3271;51.910;5.840;2023-12-29T11:39:48;2.53;;;1.15;;
6475;SDS011;3271;51.910;5.840;2023-12-29T11:42:20;2.35;;;1.42;;
6475;SDS011;3271;51.910;5.840;2023-12-29T11:44:47;2.80;;;1.48;;
6475;SDS011;3271;51.910;5.840;2023-12-29T11:50:18;2.83;;;1.38;;
6475;SDS011;3271;51.910;5.840;2023-12-29T11:52:52;2.03;;;1.38;;
6475;SDS011;3271;51.910;5.840;2023-12-29T11:55:18;3.58;;;1.40;;
6475;SDS011;3271;51.910;5.840;2023-12-29T11:57:44;2.40;;;1.50;;
6475;SDS011;3271;51.910;5.840;2023-12-29T12:00:11;2.92;;;1.38;;
6475;SDS011;3271;51.910;5.840;2023-12-29T12:02:37;2.88;;;1.30;;
6475;SDS011;3271;51.910;5.840;2023-12-29T12:05:03;3.92;;;1.45;;
6475;SDS011;3271;51.910;5.840;2023-12-29T12:12:44;6.68;;;1.85;;
6475;SDS011;3271;51.910;5.840;2023-12-29T12:17:54;2.70;;;1.45;;
6475;SDS011;3271;51.910;5.840;2023-12-29T12:20:21;3.28;;;1.65;;
6475;SDS011;3271;51.910;5.840;2023-12-29T12:22:51;4.07;;;1.30;;
6475;SDS011;3271;51.910;5.840;2023-12-29T12:25:21;4.45;;;1.75;;
6475;SDS011;3271;51.910;5.840;2023-12-29T12:27:47;4.18;;;1.75;;
6475;SDS011;3271;51.910;5.840;2023-12-29T12:30:15;3.85;;;1.88;;
6475;SDS011;3271;51.910;5.840;2023-12-29T12:32:44;5.72;;;2.20;;
6475;SDS011;3271;51.910;5.840;2023-12-29T12:35:13;4.28;;;1.60;;
6475;SDS011;3271;51.910;5.840;2023-12-29T12:37:40;8.00;;;2.00;;
6475;SDS011;3271;51.910;5.840;2023-12-29T12:40:06;6.22;;;1.70;;
6475;SDS011;3271;51.910;5.840;2023-12-29T12:42:33;6.20;;;1.83;;
6475;SDS011;3271;51.910;5.840;2023-12-29T12:45:05;3.80;;;1.92;;
6475;SDS011;3271;51.910;5.840;2023-12-29T12:47:34;5.57;;;1.98;;
6475;SDS011;3271;51.910;5.840;2023-12-29T12:50:00;5.00;;;1.67;;
6475;SDS011;3271;51.910;5.840;2023-12-29T12:52:31;4.72;;;1.50;;
6475;SDS011;3271;51.910;5.840;2023-12-29T12:54:58;6.30;;;1.70;;
6475;SDS011;3271;51.910;5.840;2023-12-29T12:57:24;8.32;;;2.10;;
6475;SDS011;3271;51.910;5.840;2023-12-29T12:59:50;5.07;;;1.77;;
6475;SDS011;3271;51.910;5.840;2023-12-29T13:02:16;5.13;;;2.05;;
6475;SDS011;3271;51.910;5.840;2023-12-29T13:04:42;4.00;;;1.63;;
6475;SDS011;3271;51.910;5.840;2023-12-29T13:07:08;5.53;;;1.88;;
6475;SDS011;3271;51.910;5.840;2023-12-29T13:09:37;5.25;;;1.65;;
6475;SDS011;3271;51.910;5.840;2023-12-29T13:12:12;5.13;;;1.75;;
6475;SDS011;3271;51.910;5.840;2023-12-29T13:14:39;6.47;;;2.17;;
6475;SDS011;3271;51.910;5.840;2023-12-29T13:17:06;5.05;;;2.15;;
6475;SDS011;3271;51.910;5.840;2023-12-29T13:19:32;6.15;;;2.63;;
6475;SDS011;3271;51.910;5.840;2023-12-29T13:21:59;6.22;;;1.80;;
6475;SDS011;3271;51.910;5.840;2023-12-29T13:24:26;6.93;;;2.15;;
6475;SDS011;3271;51.910;5.840;2023-12-29T13:26:54;5.60;;;1.95;;
6475;SDS011;3271;51.910;5.840;2023-12-29T13:29:21;5.80;;;2.00;;
6475;SDS011;3271;51.910;5.840;2023-12-29T13:31:50;3.63;;;1.55;;
6475;SDS011;3271;51.910;5.840;2023-12-29T13:34:17;5.60;;;1.88;;
6475;SDS011;3271;51.910;5.840;2023-12-29T13:39:22;3.72;;;1.63;;
6475;SDS011;3271;51.910;5.840;2023-12-29T13:41:50;7.25;;;1.90;;
6475;SDS011;3271;51.910;5.840;2023-12-29T13:44:16;2.75;;;1.52;;
6475;SDS011;3271;51.910;5.840;2023-12-29T13:46:45;5.72;;;2.05;;
6475;SDS011;3271;51.910;5.840;2023-12-29T13:49:11;5.13;;;1.63;;
6475;SDS011;3271;51.910;5.840;2023-12-29T13:51:37;5.15;;;2.10;;
6475;SDS011;3271;51.910;5.840;2023-12-29T13:54:03;4.45;;;1.60;;
6475;SDS011;3271;51.910;5.840;2023-12-29T13:56:29;3.38;;;1.80;;
6475;SDS011;3271;51.910;5.840;2023-12-29T13:58:55;4.50;;;2.03;;
6475;SDS011;3271;51.910;5.840;2023-12-29T14:01:21;6.25;;;2.03;;
6475;SDS011;3271;51.910;5.840;2023-12-29T14:06:19;3.92;;;1.98;;
6475;SDS011;3271;51.910;5.840;2023-12-29T14:08:46;2.75;;;1.45;;
6475;SDS011;3271;51.910;5.840;2023-12-29T14:11:12;4.50;;;1.58;;
6475;SDS011;3271;51.910;5.840;2023-12-29T14:13:41;4.05;;;1.58;;
6475;SDS011;3271;51.910;5.840;2023-12-29T14:16:08;4.22;;;1.98;;
6475;SDS011;3271;51.910;5.840;2023-12-29T14:21:30;2.53;;;1.70;;
6475;SDS011;3271;51.910;5.840;2023-12-29T14:26:29;5.30;;;1.90;;
6475;SDS011;3271;51.910;5.840;2023-12-29T14:31:27;4.88;;;1.83;;
6475;SDS011;3271;51.910;5.840;2023-12-29T14:33:53;3.28;;;1.50;;
6475;SDS011;3271;51.910;5.840;2023-12-29T14:36:19;3.72;;;1.70;;
6475;SDS011;3271;51.910;5.840;2023-12-29T14:38:44;2.67;;;1.45;;
6475;SDS011;3271;51.910;5.840;2023-12-29T14:41:10;1.85;;;1.38;;
6475;SDS011;3271;51.910;5.840;2023-12-29T14:43:36;1.15;;;1.05;;
6475;SDS011;3271;51.910;5.840;2023-12-29T14:46:02;2.08;;;1.02;;
6475;SDS011;3271;51.910;5.840;2023-12-29T14:48:28;1.85;;;0.90;;
6475;SDS011;3271;51.910;5.840;2023-12-29T14:50:54;2.53;;;1.00;;
6475;SDS011;3271;51.910;5.840;2023-12-29T14:53:22;2.78;;;1.20;;
6475;SDS011;3271;51.910;5.840;2023-12-29T14:55:50;1.50;;;1.10;;
6475;SDS011;3271;51.910;5.840;2023-12-29T14:58:16;1.23;;;0.90;;
6475;SDS011;3271;51.910;5.840;2023-12-29T15:00:45;1.77;;;1.10;;
6475;SDS011;3271;51.910;5.840;2023-12-29T15:03:12;2.47;;;1.40;;
6475;SDS011;3271;51.910;5.840;2023-12-29T15:05:39;2.28;;;1.20;;
6475;SDS011;3271;51.910;5.840;2023-12-29T15:08:05;1.27;;;1.17;;
6475;SDS011;3271;51.910;5.840;2023-12-29T15:10:31;1.63;;;1.10;;
6475;SDS011;3271;51.910;5.840;2023-12-29T15:12:57;2.38;;;1.65;;
6475;SDS011;3271;51.910;5.840;2023-12-29T15:15:24;4.40;;;1.60;;
6475;SDS011;3271;51.910;5.840;2023-12-29T15:17:49;1.48;;;1.20;;
6475;SDS011;3271;51.910;5.840;2023-12-29T15:20:15;1.88;;;1.08;;
6475;SDS011;3271;51.910;5.840;2023-12-29T15:22:41;2.50;;;1.55;;
6475;SDS011;3271;51.910;5.840;2023-12-29T15:25:08;4.30;;;2.53;;
6475;SDS011;3271;51.910;5.840;2023-12-29T15:27:34;3.45;;;1.70;;
6475;SDS011;3271;51.910;5.840;2023-12-29T15:30:00;2.63;;;1.65;;
6475;SDS011;3271;51.910;5.840;2023-12-29T15:32:26;2.40;;;1.50;;
6475;SDS011;3271;51.910;5.840;2023-12-29T15:34:52;12.48;;;11.43;;
6475;SDS011;3271;51.910;5.840;2023-12-29T15:37:18;4.95;;;2.72;;
6475;SDS011;3271;51.910;5.840;2023-12-29T15:39:44;3.40;;;2.85;;
6475;SDS011;3271;51.910;5.840;2023-12-29T15:42:10;2.28;;;1.60;;
6475;SDS011;3271;51.910;5.840;2023-12-29T15:44:36;3.53;;;1.70;;
6475;SDS011;3271;51.910;5.840;2023-12-29T15:47:02;2.35;;;1.52;;